createdAt,value
2019-05-12T00:00:21.039Z,2.58
2019-05-12T00:02:49.629Z,2.33
2019-05-12T00:05:18.679Z,2.47
2019-05-12T00:07:48.867Z,2.50
2019-05-12T00:10:17.952Z,2.12
2019-05-12T00:12:48.416Z,2.47
2019-05-12T00:15:19.346Z,3.20
2019-05-12T00:17:48.403Z,2.40
2019-05-12T00:20:18.050Z,2.37
2019-05-12T00:22:51.474Z,2.13
2019-05-12T00:25:19.911Z,2.23
2019-05-12T00:27:48.864Z,2.47
2019-05-12T00:30:22.232Z,2.60
2019-05-12T00:32:50.763Z,2.13
2019-05-12T00:35:19.183Z,2.70
2019-05-12T00:37:48.618Z,2.40
2019-05-12T00:40:19.125Z,2.40
2019-05-12T00:42:48.905Z,2.47
2019-05-12T00:45:18.107Z,2.62
2019-05-12T00:47:48.088Z,2.43
2019-05-12T00:50:18.447Z,2.47
2019-05-12T00:52:48.865Z,2.60
2019-05-12T00:55:18.444Z,2.50
2019-05-12T00:57:48.479Z,2.17
2019-05-12T01:00:17.908Z,2.93
2019-05-12T01:02:48.513Z,2.43
2019-05-12T01:05:17.842Z,2.73
2019-05-12T01:07:48.179Z,2.70
2019-05-12T01:10:17.997Z,3.00
2019-05-12T01:12:48.490Z,2.83
2019-05-12T01:15:17.902Z,3.00
2019-05-12T01:17:47.768Z,2.63
2019-05-12T01:20:17.812Z,3.40
2019-05-12T01:22:50.319Z,2.73
2019-05-12T01:25:17.642Z,2.72
2019-05-12T01:27:48.235Z,3.10
2019-05-12T01:30:18.057Z,3.70
2019-05-12T01:32:48.380Z,3.47
2019-05-12T01:35:18.545Z,3.20
2019-05-12T01:37:49.251Z,3.47
2019-05-12T01:40:19.028Z,3.60
2019-05-12T01:42:48.371Z,3.50
2019-05-12T01:45:19.902Z,3.20
2019-05-12T01:47:48.634Z,3.43
2019-05-12T01:50:17.803Z,3.40
2019-05-12T01:52:47.852Z,3.60
2019-05-12T01:55:18.450Z,3.00
2019-05-12T01:57:48.495Z,3.63
2019-05-12T02:00:18.683Z,3.37
2019-05-12T02:02:48.107Z,3.17
2019-05-12T02:05:18.440Z,3.10
2019-05-12T02:07:51.187Z,3.17
2019-05-12T02:10:20.052Z,3.17
2019-05-12T02:12:49.712Z,3.50
2019-05-12T02:15:18.840Z,3.33
2019-05-12T02:17:48.107Z,3.13
2019-05-12T02:20:18.322Z,3.20
2019-05-12T02:22:47.746Z,3.50
2019-05-12T02:25:18.491Z,3.47
2019-05-12T02:27:47.690Z,3.27
2019-05-12T02:30:19.800Z,3.67
2019-05-12T02:32:52.363Z,3.33
2019-05-12T02:35:17.245Z,3.40
2019-05-12T02:37:45.684Z,3.00
2019-05-12T02:40:15.316Z,3.33
2019-05-12T02:42:46.259Z,3.47
2019-05-12T02:45:15.527Z,3.33
2019-05-12T02:47:45.682Z,3.90
2019-05-12T02:50:17.561Z,2.87
2019-05-12T02:52:46.301Z,3.47
2019-05-12T02:55:15.306Z,3.33
2019-05-12T02:57:45.184Z,3.40
2019-05-12T03:00:15.848Z,3.35
2019-05-12T03:02:47.435Z,3.40
2019-05-12T03:05:16.391Z,3.83
2019-05-12T03:07:46.960Z,4.50
2019-05-12T03:10:16.027Z,3.17
2019-05-12T03:12:45.127Z,3.30
2019-05-12T03:15:15.205Z,3.98
2019-05-12T03:17:44.438Z,3.03
2019-05-12T03:20:15.285Z,3.83
2019-05-12T03:22:44.864Z,3.53
2019-05-12T03:25:23.947Z,3.65
2019-05-12T03:27:44.564Z,3.90
2019-05-12T03:30:19.524Z,4.00
2019-05-12T03:32:47.865Z,3.67
2019-05-12T03:35:17.975Z,3.85
2019-05-12T03:37:46.824Z,4.20
2019-05-12T03:40:15.237Z,3.47
2019-05-12T03:42:44.502Z,4.23
2019-05-12T03:45:14.927Z,3.27
2019-05-12T03:47:45.512Z,3.80
2019-05-12T03:50:14.917Z,3.77
2019-05-12T03:52:44.908Z,4.10
2019-05-12T03:55:30.779Z,4.30
2019-05-12T03:57:45.032Z,3.73
2019-05-12T04:00:16.085Z,3.90
2019-05-12T04:02:45.542Z,4.47
2019-05-12T04:05:15.624Z,4.53
2019-05-12T04:07:45.079Z,3.70
2019-05-12T04:10:16.026Z,4.10
2019-05-12T04:12:45.007Z,3.77
2019-05-12T04:15:15.113Z,4.13
2019-05-12T04:17:45.602Z,4.00
2019-05-12T04:20:15.171Z,5.13
2019-05-12T04:22:44.804Z,4.30
2019-05-12T04:25:14.610Z,4.27
2019-05-12T04:27:45.124Z,4.17
2019-05-12T04:30:14.411Z,4.95
2019-05-12T04:32:45.181Z,4.30
2019-05-12T04:35:15.321Z,4.27
2019-05-12T04:37:44.834Z,4.43
2019-05-12T04:40:14.842Z,4.70
2019-05-12T04:42:45.181Z,4.17
2019-05-12T04:45:15.647Z,4.30
2019-05-12T04:47:45.099Z,4.30
2019-05-12T04:50:15.633Z,3.93
2019-05-12T04:52:44.693Z,4.37
2019-05-12T04:55:15.129Z,4.57
2019-05-12T04:57:45.044Z,4.20
2019-05-12T05:00:15.905Z,3.67
2019-05-12T05:02:45.487Z,4.03
2019-05-12T05:05:15.125Z,4.53
2019-05-12T05:07:44.727Z,4.60
2019-05-12T05:10:14.488Z,4.33
2019-05-12T05:12:45.006Z,4.00
2019-05-12T05:15:14.843Z,4.40
2019-05-12T05:17:44.287Z,3.90
2019-05-12T05:20:13.510Z,3.73
2019-05-12T05:22:43.992Z,3.90
2019-05-12T05:25:14.482Z,4.13
2019-05-12T05:27:44.363Z,4.57
2019-05-12T05:30:13.966Z,4.23
2019-05-12T05:32:44.493Z,4.30
2019-05-12T05:35:13.672Z,3.83
2019-05-12T05:37:44.157Z,3.90
2019-05-12T05:40:14.091Z,3.80
2019-05-12T05:42:43.980Z,4.43
2019-05-12T05:45:19.558Z,3.87
2019-05-12T05:47:44.276Z,4.10
2019-05-12T05:50:13.655Z,3.45
2019-05-12T05:52:43.806Z,3.60
2019-05-12T05:55:20.009Z,3.47
2019-05-12T05:57:44.424Z,3.43
2019-05-12T06:00:22.626Z,3.93
2019-05-12T06:02:44.275Z,3.40
2019-05-12T06:05:14.463Z,3.27
2019-05-12T06:07:44.272Z,3.27
2019-05-12T06:10:14.448Z,2.98
2019-05-12T06:12:46.403Z,3.20
2019-05-12T06:15:13.734Z,2.70
2019-05-12T06:17:43.915Z,1.90
2019-05-12T06:20:13.559Z,2.40
2019-05-12T06:22:43.754Z,2.73
2019-05-12T06:25:16.249Z,1.93
2019-05-12T06:27:44.314Z,2.30
2019-05-12T06:30:14.834Z,1.70
2019-05-12T06:32:50.202Z,1.73
2019-05-12T06:35:15.123Z,1.80
2019-05-12T06:37:44.365Z,1.60
2019-05-12T06:40:14.047Z,1.52
2019-05-12T06:42:43.542Z,1.67
2019-05-12T06:45:14.119Z,1.40
2019-05-12T06:47:47.499Z,1.63
2019-05-12T06:50:14.658Z,2.00
2019-05-12T06:52:46.904Z,1.90
2019-05-12T06:55:14.690Z,1.53
2019-05-12T06:57:45.858Z,1.40
2019-05-12T07:00:14.591Z,1.50
2019-05-12T07:02:49.988Z,1.47
2019-05-12T07:05:14.631Z,1.30
2019-05-12T07:07:46.021Z,1.15
2019-05-12T07:10:35.193Z,1.10
2019-05-12T07:12:57.647Z,0.90
2019-05-12T07:15:14.541Z,0.70
2019-05-12T07:17:49.992Z,0.70
2019-05-12T07:20:18.655Z,0.88
2019-05-12T07:22:48.524Z,0.87
2019-05-12T07:25:17.282Z,0.63
2019-05-12T07:27:55.161Z,0.70
2019-05-12T07:30:19.163Z,0.80
2019-05-12T07:32:51.278Z,1.00
2019-05-12T07:35:17.902Z,0.70
2019-05-12T07:37:47.371Z,0.90
2019-05-12T07:40:19.045Z,0.72
2019-05-12T07:42:46.085Z,0.50
2019-05-12T07:45:20.655Z,0.50
2019-05-12T07:47:45.058Z,0.53
2019-05-12T07:50:16.315Z,0.60
2019-05-12T07:52:44.318Z,0.73
2019-05-12T07:55:14.785Z,0.60
2019-05-12T07:57:52.995Z,0.70
2019-05-12T08:00:21.119Z,0.70
2019-05-12T08:02:44.391Z,0.60
2019-05-12T08:05:19.399Z,0.50
2019-05-12T08:07:44.498Z,0.67
2019-05-12T08:10:18.440Z,0.40
2019-05-12T08:12:44.574Z,0.60
2019-05-12T08:15:14.059Z,0.60
2019-05-12T08:17:44.091Z,0.53
2019-05-12T08:20:13.608Z,0.50
2019-05-12T08:22:43.828Z,0.60
2019-05-12T08:25:13.420Z,0.40
2019-05-12T08:27:45.186Z,0.50
2019-05-12T08:30:13.970Z,0.50
2019-05-12T08:32:44.306Z,0.57
2019-05-12T08:35:13.929Z,0.40
2019-05-12T08:37:44.161Z,0.50
2019-05-12T08:40:15.377Z,0.43
2019-05-12T08:42:43.656Z,0.53
2019-05-12T08:45:17.025Z,0.50
2019-05-12T08:47:44.063Z,0.53
2019-05-12T08:50:13.671Z,0.70
2019-05-12T08:52:44.306Z,0.60
2019-05-12T08:55:16.636Z,0.50
2019-05-12T08:57:49.374Z,0.57
2019-05-12T09:00:13.682Z,0.50
2019-05-12T09:02:46.190Z,0.53
2019-05-12T09:05:14.249Z,0.60
2019-05-12T09:07:43.639Z,0.40
2019-05-12T09:10:23.515Z,0.60
2019-05-12T09:12:54.098Z,0.40
2019-05-12T09:15:23.956Z,0.33
2019-05-12T09:17:56.843Z,0.50
2019-05-12T09:20:24.276Z,0.40
2019-05-12T09:23:00.769Z,0.50
2019-05-12T09:25:23.865Z,0.50
2019-05-12T09:27:54.213Z,0.40
2019-05-12T09:30:30.068Z,0.50
2019-05-12T09:32:58.815Z,0.77
2019-05-12T09:35:28.692Z,0.40
2019-05-12T09:37:57.860Z,0.90
2019-05-12T09:40:26.350Z,0.50
2019-05-12T09:42:54.868Z,0.60
2019-05-12T09:45:24.236Z,0.60
2019-05-12T09:47:53.983Z,0.50
2019-05-12T09:50:23.323Z,0.50
2019-05-12T09:52:55.395Z,0.60
2019-05-12T09:55:24.816Z,0.50
2019-05-12T09:57:54.420Z,0.40
2019-05-12T10:00:23.948Z,0.47
2019-05-12T10:02:59.308Z,0.60
2019-05-12T10:05:22.674Z,0.40
2019-05-12T10:07:51.102Z,0.50
2019-05-12T10:10:19.846Z,0.50
2019-05-12T10:12:50.497Z,0.57
2019-05-12T10:15:23.620Z,0.60
2019-05-12T10:17:48.707Z,0.80
2019-05-12T10:20:17.382Z,0.60
2019-05-12T10:22:45.803Z,0.70
2019-05-12T10:25:14.688Z,0.80
2019-05-12T10:27:44.279Z,0.60
2019-05-12T10:30:17.077Z,0.75
2019-05-12T10:32:43.710Z,0.70
2019-05-12T10:35:20.834Z,0.65
2019-05-12T10:37:44.384Z,0.60
2019-05-12T10:40:13.922Z,0.60
2019-05-12T10:42:46.264Z,0.70
2019-05-12T10:45:18.570Z,0.68
2019-05-12T10:47:43.532Z,0.60
2019-05-12T10:50:14.345Z,0.40
2019-05-12T10:52:44.005Z,0.40
2019-05-12T10:55:14.177Z,0.50
2019-05-12T10:57:43.962Z,0.60
2019-05-12T11:00:19.732Z,0.50
2019-05-12T11:02:45.335Z,0.77
2019-05-12T11:05:21.329Z,0.60
2019-05-12T11:07:44.373Z,0.50
2019-05-12T11:10:19.481Z,0.50
2019-05-12T11:12:44.150Z,0.60
2019-05-12T11:15:13.718Z,0.70
2019-05-12T11:17:53.381Z,0.60
2019-05-12T11:20:25.091Z,0.60
2019-05-12T11:22:54.287Z,0.60
2019-05-12T11:25:24.715Z,0.60
2019-05-12T11:27:54.873Z,1.00
2019-05-12T11:30:23.958Z,0.70
2019-05-12T11:32:54.077Z,0.80
2019-05-12T11:35:23.712Z,0.50
2019-05-12T11:37:53.862Z,0.70
2019-05-12T11:40:23.851Z,0.90
2019-05-12T11:42:59.042Z,0.60
2019-05-12T11:45:24.193Z,0.40
2019-05-12T11:47:56.851Z,0.60
2019-05-12T11:50:23.088Z,0.50
2019-05-12T11:52:52.300Z,0.70
2019-05-12T11:55:21.415Z,0.70
2019-05-12T11:57:51.111Z,0.70
2019-05-12T12:00:21.366Z,0.63
2019-05-12T12:02:50.132Z,0.77
2019-05-12T12:05:18.586Z,0.60
2019-05-12T12:07:51.430Z,0.47
2019-05-12T12:10:17.262Z,0.37
2019-05-12T12:12:49.291Z,0.60
2019-05-12T12:15:20.297Z,0.60
2019-05-12T12:17:46.355Z,0.50
2019-05-12T12:20:22.557Z,0.50
2019-05-12T12:22:48.159Z,0.53
2019-05-12T12:25:23.365Z,0.47
2019-05-12T12:27:53.745Z,0.57
2019-05-12T12:30:23.675Z,0.80
2019-05-12T12:32:57.131Z,0.60
2019-05-12T12:35:23.382Z,0.60
2019-05-12T12:37:54.132Z,0.67
2019-05-12T12:40:22.395Z,0.70
2019-05-12T12:42:50.810Z,0.60
2019-05-12T12:45:23.584Z,0.67
2019-05-12T12:47:51.173Z,0.60
2019-05-12T12:50:20.153Z,0.62
2019-05-12T12:52:49.743Z,0.60
2019-05-12T12:55:18.192Z,0.50
2019-05-12T12:57:50.730Z,0.50
2019-05-12T13:00:28.926Z,0.37
2019-05-12T13:02:49.195Z,0.50
2019-05-12T13:05:17.502Z,0.50
2019-05-12T13:07:45.928Z,0.30
2019-05-12T13:10:14.505Z,0.60
2019-05-12T13:12:43.755Z,0.60
2019-05-12T13:15:14.460Z,0.67
2019-05-12T13:17:44.777Z,0.53
2019-05-12T13:20:13.946Z,0.60
2019-05-12T13:22:44.367Z,0.70
2019-05-12T13:25:14.186Z,0.63
2019-05-12T13:27:42.961Z,0.60
2019-05-12T13:30:20.145Z,0.80
2019-05-12T13:32:44.157Z,0.60
2019-05-12T13:35:16.617Z,0.60
2019-05-12T13:37:43.381Z,0.90
2019-05-12T13:40:13.611Z,0.90
2019-05-12T13:42:43.792Z,0.80
2019-05-12T13:45:16.222Z,0.90
2019-05-12T13:47:44.010Z,1.00
2019-05-12T13:50:21.242Z,0.80
2019-05-12T13:52:43.338Z,0.60
2019-05-12T13:55:13.485Z,0.80
2019-05-12T13:57:46.580Z,0.70
2019-05-12T14:00:14.129Z,0.60
2019-05-12T14:02:44.138Z,0.77
2019-05-12T14:05:15.014Z,0.87
2019-05-12T14:07:43.808Z,1.10
2019-05-12T14:10:13.987Z,0.80
2019-05-12T14:12:43.967Z,0.60
2019-05-12T14:15:14.389Z,1.03
2019-05-12T14:17:43.793Z,0.87
2019-05-12T14:20:15.932Z,0.62
2019-05-12T14:22:44.989Z,0.70
2019-05-12T14:25:15.197Z,0.70
2019-05-12T14:27:44.323Z,0.70
2019-05-12T14:30:14.467Z,0.50
2019-05-12T14:32:43.987Z,0.67
2019-05-12T14:35:13.216Z,0.60
2019-05-12T14:37:45.736Z,0.70
2019-05-12T14:40:13.352Z,0.67
2019-05-12T14:42:44.241Z,0.57
2019-05-12T14:45:13.795Z,1.03
2019-05-12T14:47:43.669Z,0.53
2019-05-12T14:50:14.083Z,1.10
2019-05-12T14:52:43.983Z,1.13
2019-05-12T14:55:13.894Z,0.60
2019-05-12T14:57:42.536Z,0.87
2019-05-12T15:00:17.620Z,0.90
2019-05-12T15:02:43.697Z,0.70
2019-05-12T15:05:13.947Z,0.50
2019-05-12T15:07:50.846Z,0.60
2019-05-12T15:10:14.554Z,0.73
2019-05-12T15:12:44.061Z,0.53
2019-05-12T15:15:15.662Z,0.50
2019-05-12T15:17:44.408Z,0.77
2019-05-12T15:20:13.831Z,1.00
2019-05-12T15:22:51.346Z,0.90
2019-05-12T15:25:14.466Z,0.70
2019-05-12T15:27:45.925Z,0.63
2019-05-12T15:30:22.733Z,0.62
2019-05-12T15:32:43.738Z,0.70
2019-05-12T15:35:13.758Z,0.70
2019-05-12T15:37:43.594Z,0.70
2019-05-12T15:40:14.468Z,0.80
2019-05-12T15:42:45.345Z,0.60
2019-05-12T15:45:16.611Z,0.63
2019-05-12T15:47:44.638Z,0.60
2019-05-12T15:50:14.707Z,0.60
2019-05-12T15:52:45.625Z,0.67
2019-05-12T15:55:17.909Z,0.70
2019-05-12T15:57:44.800Z,0.97
2019-05-12T16:00:16.967Z,0.60
2019-05-12T16:02:44.533Z,0.73
2019-05-12T16:05:14.531Z,0.57
2019-05-12T16:07:45.804Z,0.67
2019-05-12T16:10:14.669Z,0.57
2019-05-12T16:12:43.647Z,0.70
2019-05-12T16:15:17.403Z,0.90
2019-05-12T16:17:44.253Z,0.67
2019-05-12T16:20:14.352Z,0.57
2019-05-12T16:22:45.151Z,0.40
2019-05-12T16:25:15.232Z,0.50
2019-05-12T16:27:44.628Z,0.93
2019-05-12T16:30:14.138Z,0.60
2019-05-12T16:32:47.484Z,0.57
2019-05-12T16:35:14.571Z,0.70
2019-05-12T16:37:44.211Z,0.70
2019-05-12T16:40:13.933Z,0.90
2019-05-12T16:42:48.124Z,0.57
2019-05-12T16:45:14.196Z,0.40
2019-05-12T16:47:44.850Z,0.70
2019-05-12T16:50:19.697Z,0.87
2019-05-12T16:52:45.430Z,0.80
2019-05-12T16:55:14.501Z,0.87
2019-05-12T16:57:51.630Z,0.60
2019-05-12T17:00:14.081Z,0.60
2019-05-12T17:02:51.910Z,0.50
2019-05-12T17:05:20.124Z,0.70
2019-05-12T17:07:44.125Z,0.50
2019-05-12T17:10:16.566Z,0.50
2019-05-12T17:12:43.859Z,0.90
2019-05-12T17:15:15.169Z,0.80
2019-05-12T17:17:44.821Z,0.70
2019-05-12T17:20:14.037Z,0.70
2019-05-12T17:22:45.396Z,0.70
2019-05-12T17:25:15.403Z,0.63
2019-05-12T17:27:44.900Z,0.50
2019-05-12T17:30:14.783Z,0.50
2019-05-12T17:32:57.549Z,0.50
2019-05-12T17:35:14.899Z,1.03
2019-05-12T17:37:43.577Z,0.50
2019-05-12T17:40:15.613Z,0.65
2019-05-12T17:42:44.316Z,0.80
2019-05-12T17:45:18.656Z,0.82
2019-05-12T17:47:44.794Z,0.60
2019-05-12T17:50:14.041Z,0.60
2019-05-12T17:52:44.851Z,0.60
2019-05-12T17:55:14.626Z,0.70
2019-05-12T17:57:44.030Z,0.60
2019-05-12T18:00:14.815Z,0.70
2019-05-12T18:02:44.076Z,0.50
2019-05-12T18:05:15.423Z,0.73
2019-05-12T18:07:44.640Z,0.50
2019-05-12T18:10:13.737Z,0.60
2019-05-12T18:12:45.288Z,0.73
2019-05-12T18:15:14.997Z,0.70
2019-05-12T18:17:47.372Z,0.73
2019-05-12T18:20:17.736Z,0.60
2019-05-12T18:22:47.129Z,0.80
2019-05-12T18:25:15.840Z,0.70
2019-05-12T18:27:50.270Z,0.50
2019-05-12T18:30:18.880Z,0.70
2019-05-12T18:32:45.617Z,0.73
2019-05-12T18:35:14.198Z,0.70
2019-05-12T18:37:42.716Z,0.73
2019-05-12T18:40:11.681Z,0.60
2019-05-12T18:42:40.134Z,0.70
2019-05-12T18:45:12.548Z,0.60
2019-05-12T18:47:40.499Z,0.70
2019-05-12T18:50:09.558Z,0.90
2019-05-12T18:52:42.970Z,0.77
2019-05-12T18:55:08.294Z,0.67
2019-05-12T18:57:39.330Z,0.60
2019-05-12T19:00:20.819Z,0.77
2019-05-12T19:02:51.162Z,0.73
2019-05-12T19:05:30.031Z,0.63
2019-05-12T19:07:49.547Z,0.87
2019-05-12T19:10:18.107Z,0.95
2019-05-12T19:12:46.641Z,0.90
2019-05-12T19:15:20.126Z,0.83
2019-05-12T19:17:45.989Z,0.60
2019-05-12T19:20:15.244Z,0.70
2019-05-12T19:22:49.414Z,0.70
2019-05-12T19:25:14.977Z,1.05
2019-05-12T19:27:45.656Z,0.73
2019-05-12T19:30:18.896Z,0.80
2019-05-12T19:32:44.993Z,0.70
2019-05-12T19:35:15.922Z,0.70
2019-05-12T19:37:45.349Z,0.70
2019-05-12T19:40:17.403Z,0.60
2019-05-12T19:42:44.967Z,1.17
2019-05-12T19:45:19.505Z,0.80
2019-05-12T19:47:44.421Z,1.07
2019-05-12T19:50:18.161Z,0.78
2019-05-12T19:52:43.636Z,1.10
2019-05-12T19:55:14.058Z,1.07
2019-05-12T19:57:44.146Z,1.00
2019-05-12T20:00:13.945Z,0.82
2019-05-12T20:02:42.655Z,0.97
2019-05-12T20:05:16.749Z,1.00
2019-05-12T20:07:41.501Z,0.80
2019-05-12T20:10:12.847Z,1.00
2019-05-12T20:12:40.475Z,0.93
2019-05-12T20:15:09.252Z,1.00
2019-05-12T20:17:37.944Z,0.83
2019-05-12T20:20:09.391Z,0.60
2019-05-12T20:22:38.758Z,1.00
2019-05-12T20:25:07.563Z,0.90
2019-05-12T20:27:35.996Z,0.80
2019-05-12T20:30:17.150Z,0.83
2019-05-12T20:32:40.146Z,1.23
2019-05-12T20:35:08.955Z,1.00
2019-05-12T20:37:37.371Z,1.20
2019-05-12T20:40:07.870Z,1.00
2019-05-12T20:42:42.463Z,0.93
2019-05-12T20:45:08.511Z,1.23
2019-05-12T20:47:39.111Z,1.27
2019-05-12T20:50:08.317Z,1.00
2019-05-12T20:52:39.328Z,1.20
2019-05-12T20:55:07.349Z,1.07
2019-05-12T20:57:40.051Z,1.07
2019-05-12T21:00:08.667Z,1.47
2019-05-12T21:02:37.265Z,1.27
2019-05-12T21:05:14.430Z,1.30
2019-05-12T21:07:37.565Z,1.10
2019-05-12T21:10:07.447Z,1.30
2019-05-12T21:12:40.072Z,1.20
2019-05-12T21:15:15.936Z,0.97
2019-05-12T21:17:43.081Z,1.40
2019-05-12T21:20:11.740Z,1.23
2019-05-12T21:22:39.021Z,1.20
2019-05-12T21:25:10.622Z,1.20
2019-05-12T21:27:38.039Z,1.27
2019-05-12T21:30:11.941Z,1.40
2019-05-12T21:32:40.321Z,1.23
2019-05-12T21:35:19.266Z,1.60
2019-05-12T21:37:45.572Z,1.60
2019-05-12T21:40:09.253Z,1.22
2019-05-12T21:42:37.694Z,1.57
2019-05-12T21:45:06.447Z,1.60
2019-05-12T21:47:42.869Z,1.67
2019-05-12T21:50:08.298Z,1.60
2019-05-12T21:52:39.152Z,1.57
2019-05-12T21:55:13.485Z,1.43
2019-05-12T21:57:37.230Z,1.50
2019-05-12T22:00:19.986Z,1.77
2019-05-12T22:02:46.486Z,1.90
2019-05-12T22:05:23.724Z,1.70
2019-05-12T22:07:45.430Z,1.47
2019-05-12T22:10:15.544Z,1.80
2019-05-12T22:12:44.172Z,2.40
2019-05-12T22:15:24.509Z,1.90
2019-05-12T22:17:59.948Z,2.00
2019-05-12T22:20:33.044Z,1.97
2019-05-12T22:23:09.568Z,1.87
2019-05-12T22:25:34.486Z,1.67
2019-05-12T22:28:08.225Z,2.60
2019-05-12T22:30:34.842Z,1.87
2019-05-12T22:33:08.300Z,2.10
2019-05-12T22:35:34.068Z,1.50
2019-05-12T22:38:09.225Z,1.93
2019-05-12T22:40:32.858Z,2.13
2019-05-12T22:43:03.794Z,2.00
2019-05-12T22:45:36.189Z,2.13
2019-05-12T22:48:04.020Z,2.20
2019-05-12T22:50:33.124Z,2.03
2019-05-12T22:53:04.133Z,2.17
2019-05-12T22:55:33.245Z,2.10
2019-05-12T22:58:02.457Z,2.37
2019-05-12T23:00:31.018Z,2.27
2019-05-12T23:03:00.707Z,2.17
2019-05-12T23:05:29.651Z,2.67
2019-05-12T23:08:00.300Z,2.13
2019-05-12T23:10:28.217Z,2.30
2019-05-12T23:13:01.587Z,2.20
2019-05-12T23:15:26.818Z,2.63
2019-05-12T23:17:55.238Z,2.23
2019-05-12T23:20:25.383Z,2.20
2019-05-12T23:22:54.484Z,2.20
2019-05-12T23:25:24.476Z,2.43
2019-05-12T23:27:54.745Z,2.70
2019-05-12T23:30:24.270Z,1.95
2019-05-12T23:32:53.125Z,2.67
2019-05-12T23:35:21.815Z,2.55
2019-05-12T23:37:50.324Z,2.37
2019-05-12T23:40:18.732Z,2.40
2019-05-12T23:42:47.162Z,2.53
2019-05-12T23:45:15.606Z,2.47
2019-05-12T23:47:44.212Z,2.70
2019-05-12T23:50:14.187Z,2.10
2019-05-12T23:52:44.083Z,1.93
2019-05-12T23:55:13.746Z,2.25
2019-05-12T23:57:44.377Z,1.77
